createdAt,value
2023-05-01T12:34:06.203Z,1.90
2023-05-01T12:36:54.800Z,2.20
2023-05-01T12:39:44.612Z,2.12
2023-05-01T12:42:31.246Z,2.00
2023-05-01T12:45:17.358Z,1.90
2023-05-01T12:48:10.586Z,1.93
2023-05-01T12:50:57.079Z,1.80
2023-05-01T12:53:44.429Z,1.65
2023-05-01T12:56:30.854Z,1.83
2023-05-01T12:59:25.416Z,1.90
2023-05-01T13:02:16.074Z,1.90
2023-05-01T13:05:10.543Z,1.85
2023-05-01T13:07:57.028Z,2.10
2023-05-01T13:10:44.347Z,1.80
2023-05-01T13:13:31.949Z,1.90
2023-05-01T13:16:18.361Z,1.77
2023-05-01T13:19:06.426Z,2.00
2023-05-01T13:21:52.982Z,1.85
2023-05-01T13:24:44.750Z,1.98
2023-05-01T13:27:31.433Z,1.70
2023-05-01T13:30:22.183Z,1.67
2023-05-01T13:33:11.122Z,1.90
2023-05-01T13:35:57.693Z,1.55
2023-05-01T13:38:46.923Z,1.53
2023-05-01T13:41:35.204Z,1.65
2023-05-01T13:44:22.369Z,1.60
2023-05-01T13:47:08.805Z,1.95
2023-05-01T13:49:55.732Z,1.70
2023-05-01T13:52:46.430Z,1.55
2023-05-01T13:55:33.543Z,1.70
2023-05-01T13:58:19.556Z,1.60
2023-05-01T14:01:15.169Z,1.62
2023-05-01T14:04:01.686Z,1.58
2023-05-01T14:06:48.707Z,1.53
2023-05-01T14:09:39.979Z,1.48
2023-05-01T14:12:31.274Z,1.60
2023-05-01T14:15:17.701Z,1.70
2023-05-01T14:18:07.341Z,1.50
2023-05-01T14:20:54.146Z,1.60
2023-05-01T14:23:42.168Z,1.50
2023-05-01T14:26:28.514Z,1.30
2023-05-01T14:29:26.856Z,1.65
2023-05-01T14:32:13.471Z,1.30
2023-05-01T14:34:59.861Z,1.33
2023-05-01T14:37:46.892Z,1.80
2023-05-01T14:40:34.045Z,1.80
2023-05-01T14:43:24.335Z,1.35
2023-05-01T14:46:12.839Z,1.50
2023-05-01T14:49:01.024Z,1.50
2023-05-01T14:51:47.676Z,1.30
2023-05-01T14:54:36.462Z,1.30
2023-05-01T14:57:22.715Z,1.30
2023-05-01T15:00:09.689Z,1.30
2023-05-01T15:02:56.194Z,1.40
2023-05-01T15:05:44.428Z,1.40
2023-05-01T15:08:32.454Z,1.37
2023-05-01T15:11:20.869Z,1.30
2023-05-01T15:14:07.217Z,1.40
2023-05-01T15:16:53.739Z,1.60
2023-05-01T15:19:40.028Z,1.37
2023-05-01T15:22:27.290Z,1.45
2023-05-01T15:25:16.666Z,1.40
2023-05-01T15:28:03.563Z,1.47
2023-05-01T15:30:52.005Z,1.40
2023-05-01T15:33:38.365Z,1.27
2023-05-01T15:36:24.643Z,1.40
2023-05-01T15:39:13.235Z,1.42
2023-05-01T15:42:00.990Z,1.33
2023-05-01T15:44:48.191Z,1.40
2023-05-01T15:47:34.640Z,1.40
2023-05-01T15:50:22.098Z,1.48
2023-05-01T15:53:08.796Z,1.30
2023-05-01T15:55:58.002Z,1.37
2023-05-01T15:58:44.365Z,1.50
2023-05-01T16:01:32.452Z,1.80
2023-05-01T16:04:19.230Z,1.65
2023-05-01T16:07:06.212Z,2.00
2023-05-01T16:09:52.958Z,1.40
2023-05-01T16:12:39.214Z,1.77
2023-05-01T16:15:25.565Z,1.70
2023-05-01T16:18:22.031Z,1.67
2023-05-01T16:21:14.046Z,1.60
2023-05-01T16:24:01.730Z,1.70
2023-05-01T16:26:48.636Z,1.75
2023-05-01T16:29:35.060Z,1.70
2023-05-01T16:32:21.938Z,1.87
2023-05-01T16:35:13.008Z,1.90
2023-05-01T16:37:59.646Z,1.97
2023-05-01T16:40:48.714Z,1.60
2023-05-01T16:43:35.414Z,1.77
2023-05-01T16:46:21.925Z,1.80
2023-05-01T16:49:12.251Z,1.50
2023-05-01T16:51:58.722Z,1.60
2023-05-01T16:54:48.444Z,1.75
2023-05-01T16:57:34.959Z,1.95
2023-05-01T17:00:21.291Z,2.00
2023-05-01T17:03:07.581Z,1.70
2023-05-01T17:05:54.995Z,1.80
2023-05-01T17:08:41.187Z,1.60
2023-05-01T17:11:29.161Z,1.73
2023-05-01T17:14:16.578Z,1.50
2023-05-01T17:17:04.546Z,1.70
2023-05-01T17:19:53.534Z,1.50
2023-05-01T17:22:39.882Z,1.65
2023-05-01T17:25:26.194Z,1.50
2023-05-01T17:28:12.524Z,1.67
2023-05-01T17:30:58.892Z,1.60
2023-05-01T17:33:46.082Z,1.97
2023-05-01T17:36:32.297Z,1.73
2023-05-01T17:39:21.737Z,1.77
2023-05-01T17:42:08.687Z,1.62
2023-05-01T17:44:55.372Z,1.70
2023-05-01T17:47:42.868Z,1.80
2023-05-01T17:50:30.040Z,1.60
2023-05-01T17:53:16.166Z,1.50
2023-05-01T17:56:02.640Z,1.40
2023-05-01T17:58:48.658Z,1.50
2023-05-01T18:01:35.445Z,1.70
2023-05-01T18:04:22.490Z,2.10
2023-05-01T18:07:08.844Z,1.92
2023-05-01T18:09:55.340Z,2.10
2023-05-01T18:12:41.693Z,2.10
2023-05-01T18:15:28.163Z,2.12
2023-05-01T18:18:14.709Z,1.92
2023-05-01T18:21:01.013Z,1.98
2023-05-01T18:23:48.599Z,1.85
2023-05-01T18:26:36.255Z,1.87
2023-05-01T18:29:22.872Z,1.80
2023-05-01T18:32:12.827Z,2.00
2023-05-01T18:34:59.668Z,1.90
2023-05-01T18:37:46.589Z,2.00
2023-05-01T18:40:33.184Z,2.30
2023-05-01T18:43:19.856Z,2.50
2023-05-01T18:46:06.259Z,2.47
2023-05-01T18:48:52.527Z,2.33
2023-05-01T18:51:38.936Z,2.25
2023-05-01T18:54:25.494Z,2.15
2023-05-01T18:57:11.910Z,2.20
2023-05-01T18:59:58.565Z,2.10
2023-05-01T19:02:51.362Z,2.08
2023-05-01T19:05:38.316Z,2.15
2023-05-01T19:08:24.559Z,2.78
2023-05-01T19:11:10.930Z,2.28
2023-05-01T19:13:59.667Z,2.20
2023-05-01T19:16:46.340Z,2.30
2023-05-01T19:19:32.914Z,2.78
2023-05-01T19:22:19.673Z,2.65
2023-05-01T19:25:06.058Z,2.70
2023-05-01T19:27:52.678Z,2.55
2023-05-01T19:30:39.367Z,2.40
2023-05-01T19:33:25.769Z,2.83
2023-05-01T19:36:12.318Z,2.70
2023-05-01T19:38:58.817Z,2.65
2023-05-01T19:41:45.204Z,2.90
2023-05-01T19:44:31.604Z,2.50
2023-05-01T19:47:17.954Z,2.72
2023-05-01T19:50:04.682Z,3.00
2023-05-01T19:52:51.397Z,2.90
2023-05-01T19:55:40.069Z,2.90
2023-05-01T19:58:27.474Z,2.90
2023-05-01T20:01:13.799Z,2.53
2023-05-01T20:04:00.331Z,2.55
2023-05-01T20:06:46.970Z,2.42
2023-05-01T20:09:33.410Z,2.10
2023-05-01T20:12:23.024Z,2.30
2023-05-01T20:15:09.725Z,1.98
2023-05-01T20:17:55.965Z,1.90
2023-05-01T20:20:42.778Z,1.90
2023-05-01T20:23:29.246Z,1.98
2023-05-01T20:26:15.489Z,2.10
2023-05-01T20:29:02.118Z,1.75
2023-05-01T20:31:51.400Z,1.60
2023-05-01T20:34:37.914Z,1.80
2023-05-01T20:37:24.588Z,1.80
2023-05-01T20:40:12.256Z,1.98
2023-05-01T20:42:59.717Z,2.05
2023-05-01T20:45:45.832Z,1.90
2023-05-01T20:48:32.758Z,2.00
2023-05-01T20:51:19.112Z,2.22
2023-05-01T20:54:06.032Z,2.25
2023-05-01T20:56:52.923Z,2.08
2023-05-01T20:59:39.568Z,2.23
2023-05-01T21:02:26.282Z,2.12
2023-05-01T21:05:13.000Z,2.20
2023-05-01T21:07:59.378Z,2.25
2023-05-01T21:10:45.792Z,2.12
2023-05-01T21:13:32.364Z,2.08
2023-05-01T21:16:19.773Z,2.65
2023-05-01T21:19:06.953Z,2.20
2023-05-01T21:21:55.272Z,2.30
2023-05-01T21:24:44.101Z,2.30
2023-05-01T21:27:30.657Z,1.87
2023-05-01T21:30:24.422Z,1.77
2023-05-01T21:33:14.520Z,1.83
2023-05-01T21:36:00.637Z,1.90
2023-05-01T21:38:47.110Z,1.85
2023-05-01T21:41:33.353Z,2.17
2023-05-01T21:44:20.038Z,1.70
2023-05-01T21:47:06.744Z,1.77
2023-05-01T21:49:56.968Z,1.87
2023-05-01T21:52:44.298Z,1.87
2023-05-01T21:55:31.573Z,1.80
2023-05-01T21:58:17.875Z,1.70
2023-05-01T22:01:04.369Z,2.30
2023-05-01T22:03:51.609Z,1.90
2023-05-01T22:06:38.177Z,1.90
2023-05-01T22:09:24.402Z,2.08
2023-05-01T22:12:10.927Z,2.08
2023-05-01T22:14:57.409Z,1.70
2023-05-01T22:17:44.471Z,1.90
2023-05-01T22:20:32.065Z,1.90
2023-05-01T22:23:18.571Z,2.40
2023-05-01T22:26:05.117Z,2.30
2023-05-01T22:28:51.625Z,2.37
2023-05-01T22:31:38.272Z,2.60
2023-05-01T22:34:24.526Z,2.60
2023-05-01T22:37:11.156Z,3.10
2023-05-01T22:39:57.472Z,2.58
2023-05-01T22:42:44.879Z,2.70
2023-05-01T22:45:31.236Z,2.67
2023-05-01T22:48:17.966Z,2.37
2023-05-01T22:51:04.232Z,2.40
2023-05-01T22:53:50.866Z,2.00
2023-05-01T22:56:37.585Z,2.17
2023-05-01T22:59:24.364Z,2.30
2023-05-01T23:02:16.154Z,2.40
2023-05-01T23:05:02.739Z,2.00
2023-05-01T23:07:49.185Z,2.37
2023-05-01T23:10:40.653Z,2.25
2023-05-01T23:13:28.167Z,2.20
2023-05-01T23:16:18.492Z,2.10
2023-05-01T23:19:04.957Z,2.35
2023-05-01T23:22:02.752Z,2.00
2023-05-01T23:24:49.340Z,1.90
2023-05-01T23:27:41.198Z,2.20
2023-05-01T23:30:27.457Z,1.90
2023-05-01T23:33:14.632Z,2.00
2023-05-01T23:36:01.253Z,2.20
2023-05-01T23:38:48.200Z,2.80
2023-05-01T23:41:34.569Z,2.35
2023-05-01T23:44:20.833Z,2.50
2023-05-01T23:47:07.572Z,2.00
2023-05-01T23:49:54.252Z,2.47
2023-05-01T23:52:40.632Z,2.60
2023-05-01T23:55:27.012Z,2.67
2023-05-01T23:58:13.379Z,2.67
